Historyczne dane pomiarowe

Dodano dane terminowe – wersja testowa.

Dane z okresu 1951-2019

Wersja bazy: 1.34 [2019-03-16, lista zmian], aktualizacja planowana na 2019-04-15

Dane meteo z obszaru Polski uzyskane na podstawie danych udostępnionych przez Instytut Meteorologii i Gospodarki Wodnej – Państwowy Instytut Badawczy.

 

Wybierz Datę:    

       

TemperaturaWilgotnośćWiatrCiśnienieOpadyŚniegCzas trwania zjawisk
 Stacja t tx tn tng RH VA  wxwx mslp ppp RRR   cm mm wxwxwxwxwxwxwx
1987-08-14 15.6 21.1 11.1 6.4 76.5- 7.3 2.0---- 2.5------------
1987-08-13 12.7 16.2 8.6 6.6 87.3- 7.0 2.0---- 0.0------------
1987-08-12 13.8 17.8 10.5 10.0 75.5- 4.7 3.3---- 0.0------------
1987-08-11 13.5 16.7 11.4 11.4 88.8- 6.7 2.7---- 2.9------------
1987-08-10 15.2 19.7 13.8 9.3 90.3- 8.0 2.3---- 11.3------------
1987-08-09 17.4 22.6 12.8 8.5 68.3- 6.7 1.7---- 4.7------------
1987-08-08 15.4 21.1 9.7 6.2 70.5- 4.3 2.7---- 0.0------------
1987-08-07 13.5 19.1 8.6 7.5 70.0- 5.3 3.7---- 0.0------------
1987-08-06 13.7 17.5 10.5 6.6 71.3- 5.3 3.7---- 2.3------------
1987-08-05 14.0 18.1 8.7 6.4 66.3- 1.7 3.7---- 0.0------------
1987-08-04 15.0 18.0 11.8 8.3 73.0- 5.3 3.7---- 0.0------------
1987-08-03 14.5 18.1 11.2 9.7 71.8- 5.0 3.0---- 0.0------------
1987-08-02 14.5 18.8 12.2 11.0 78.5- 6.0 3.7---- 1.6------------
1987-08-01 15.9 20.5 12.3 10.1 81.3- 7.7 2.3---- 6.3------------
1987-07-31 16.2 20.9 14.9 9.5 90.0- 7.7 1.7---- 20.0------------
1987-07-30 18.6 23.9 11.9 8.9 63.8- 4.3 1.3---- 1.0------------
1987-07-29 15.2 19.3 11.2 8.7 73.3- 6.0 2.0---- 0.0------------
1987-07-28 14.9 19.3 12.2 9.3 76.3- 6.7 4.7---- 1.0------------
1987-07-27 12.8 16.5 8.3 6.2 71.3- 6.7 3.7---- 3.6------------
1987-07-26 14.9 19.3 13.2 12.4 73.3- 6.0 2.3---- 0.3------------
1987-07-25 19.3 23.2 17.0 12.7 73.3- 4.0 2.7---- 0.0------------
1987-07-24 21.6 26.5 17.5 13.6 76.8- 4.7 1.3---- 0.0------------
1987-07-23 22.1 27.2 16.8 14.0 75.3- 1.3 1.0---- 0.1------------
1987-07-22 20.1 24.9 16.7 13.1 89.8- 4.7 1.0---- 0.0------------
1987-07-21 20.3 25.0 13.7 9.5 75.3- 2.3 1.0---- 0.0------------
1987-07-20 18.8 20.6 16.7 15.5 87.0- 6.3 3.0---- 0.2------------
1987-07-19 20.2 24.7 15.8 13.9 81.3- 6.0 4.3---- 0.7------------
1987-07-18 21.2 25.1 17.9 17.5 82.0- 5.0 2.7---- 0.0------------
1987-07-17 20.7 26.6 14.5 11.4 72.8- 4.7 2.0---- 15.1------------
1987-07-16 19.5 25.5 12.2 7.5 64.0- 4.3 3.3---- 0.0------------
1987-07-15 17.5 23.0 9.4 5.1 61.8- 0.7 2.0---- 0.0------------
1987-07-14 15.7 20.2 10.8 8.7 69.0- 5.0 3.3---- 0.0------------
1987-07-13 17.1 20.9 13.0 10.8 74.3- 4.0 2.3---- 0.0------------
1987-07-12 18.7 24.5 15.3 13.8 85.5- 7.3 2.0---- 7.1------------
1987-07-11 15.3 21.1 11.2 7.9 75.0- 7.3 3.0---- 16.5------------
1987-07-10 14.3 18.6 10.3 8.6 72.3- 4.7 3.0---- 0.1------------
1987-07-09 18.1 25.6 15.6 14.9 83.5- 8.0 2.3---- 0.8------------
1987-07-08 23.4 29.3 16.5 11.7 55.0- 3.0 2.3---- 2.6------------
1987-07-07 22.5 27.4 13.4 8.5 53.0- 0.0 1.3---- 0.0------------
1987-07-06 18.8 24.7 10.7 5.9 59.0- 0.7 1.0---- 0.0------------
1987-07-05 17.7 22.5 12.2 11.6 65.0- 3.0 1.7---- 0.0------------
1987-07-04 18.3 22.9 13.8 11.8 65.0- 6.3 1.0---- 0.0------------
1987-07-03 18.8 23.6 12.6 9.5 66.8- 3.0 1.7---- 0.0------------
1987-07-02 19.9 26.5 17.2 17.0 70.0- 5.7 1.7---- 0.0------------
1987-07-01 25.9 31.1 21.3 18.2 66.3- 3.0 3.3---- 0.0------------
1987-06-30 24.6 29.1 20.2 18.2 75.3- 2.3 1.0---- 0.0------------
1987-06-29 18.5 24.0 10.5 6.9 75.3- 5.3 3.3---- 0.0------------
1987-06-28 18.1 22.5 14.6 10.9 77.8- 7.0 3.7---- 1.5------------
1987-06-27 18.9 22.2 16.5 14.9 78.5- 5.3 2.0---- 0.0------------
1987-06-26 17.3 22.9 11.6 8.1 70.3- 6.0 2.7---- 3.7------------
1987-06-25 12.9 18.3 10.1 10.8 88.5- 6.0 1.3---- 3.7------------
1987-06-24 16.8 20.3 13.7 10.4 71.8- 4.3 4.0---- 3.1------------
1987-06-23 16.1 22.0 13.2 12.8 80.3- 6.7 2.7---- 0.0------------
1987-06-22 20.3 26.0 12.7 9.6 63.0- 2.3 0.7---- 0.0------------
1987-06-21 18.6 24.2 10.7 7.3 65.5- 3.0 2.0---- 0.0------------
1987-06-20 17.4 22.8 10.4 6.6 57.0- 1.0 2.7---- 0.0------------
1987-06-19 12.5 16.0 7.7 5.9 74.8- 4.3 2.3---- 0.2------------
1987-06-18 12.0 17.3 7.6 3.7 73.0- 4.7 2.7---- 3.5------------
1987-06-17 12.7 15.0 11.1 10.1 71.5- 5.0 3.0---- 0.0------------
1987-06-16 14.9 25.6 10.6 11.1 81.0- 8.0 5.3---- 2.0------------
505.5 ms

 

Źródłem pochodzenia danych jest Instytut Meteorologii i Gospodarki Wodnej – Państwowy Instytut Badawczy. Dane Instytutu Meteorologii i Gospodarki Wodnej – Państwowego Instytutu Badawczego zostały przetworzone.

Dane źródłowe można odnaleźć na stronie https://dane.imgw.pl